Cougar, Washington
Current Conditions -  °F | °C
As of 3:53 PM on Monday 20 Oct 2014 (Local Time) from KSPB Reporting Station
Broken Clouds Broken Clouds  
Wind Chill: 61°   Ceiling: 11000
Heat Index: 61°   Visibility: 10mi
Dew Point: 55°   Wind: 9mph
Humidity: 81%   Direction: 150°SSE
Pressure: 29.79"   Gusts: NA
Location:  46.05°N, 122.3°W
Report Text: KSPB 202253Z AUTO 15008KT 10SM FEW060 SCT075 BKN110 16/13 A2979 RMK AO2 RAE25 SLP087 P0002 T01610128
Loading
Personal Weather Stations






























Interactive Weather Map
Tropical Storm Tracking
New forecast layout! Learn more

10-Day Weather Forecast

Advertisements
Track Severe Weather on mobile